createdAt,value
2018-12-06T00:00:36.683Z,5.00
2018-12-06T00:06:29.497Z,5.10
2018-12-06T00:09:15.171Z,5.87
2018-12-06T00:11:53.008Z,5.40
2018-12-06T00:17:47.945Z,6.20
2018-12-06T00:20:29.864Z,6.33
2018-12-06T00:23:09.474Z,5.87
2018-12-06T00:25:54.796Z,5.40
2018-12-06T00:28:40.196Z,4.80
2018-12-06T00:31:26.070Z,5.20
2018-12-06T00:34:17.999Z,5.27
2018-12-06T00:39:57.411Z,5.87
2018-12-06T00:42:43.183Z,5.10
2018-12-06T00:45:22.066Z,6.00
2018-12-06T00:47:59.885Z,5.00
2018-12-06T00:50:45.349Z,5.77
2018-12-06T00:53:24.635Z,4.80
2018-12-06T00:56:09.956Z,5.20
2018-12-06T00:58:52.606Z,4.70
2018-12-06T01:01:37.652Z,5.50
2018-12-06T01:04:16.608Z,5.10
2018-12-06T01:07:01.966Z,5.00
2018-12-06T01:09:33.150Z,4.60
2018-12-06T01:12:04.148Z,5.40
2018-12-06T01:14:50.125Z,6.30
2018-12-06T01:17:29.259Z,5.00
2018-12-06T01:23:08.696Z,5.30
2018-12-06T01:25:45.912Z,5.10
2018-12-06T01:28:18.113Z,5.77
2018-12-06T01:31:05.646Z,5.60
2018-12-06T01:33:42.689Z,5.40
2018-12-06T01:36:28.037Z,5.57
2018-12-06T01:39:12.930Z,5.67
2018-12-06T01:41:58.773Z,6.33
2018-12-06T01:44:47.616Z,5.50
2018-12-06T01:47:35.514Z,5.67
2018-12-06T01:53:21.752Z,5.20
2018-12-06T01:55:59.119Z,4.97
2018-12-06T02:01:56.633Z,5.47
2018-12-06T02:04:42.030Z,4.03
2018-12-06T02:07:29.149Z,5.10
2018-12-06T02:10:07.304Z,4.90
2018-12-06T02:12:58.688Z,5.30
2018-12-06T02:15:41.276Z,5.60
2018-12-06T02:18:23.952Z,5.13
2018-12-06T02:27:09.036Z,4.97
2018-12-06T02:29:59.980Z,4.70
2018-12-06T02:32:45.509Z,4.63
2018-12-06T02:35:30.547Z,4.40
2018-12-06T02:38:12.490Z,5.07
2018-12-06T02:44:07.946Z,5.20
2018-12-06T02:46:49.709Z,5.37
2018-12-06T02:49:34.762Z,6.97
2018-12-06T02:52:19.810Z,6.10
2018-12-06T02:54:59.112Z,5.43
2018-12-06T02:57:40.306Z,4.97
2018-12-06T03:00:25.161Z,6.03
2018-12-06T03:03:11.060Z,5.10
2018-12-06T03:08:59.659Z,5.47
2018-12-06T03:11:45.624Z,5.87
2018-12-06T03:14:22.537Z,5.80
2018-12-06T03:16:59.431Z,5.90
2018-12-06T03:19:50.899Z,5.77
2018-12-06T03:22:38.293Z,5.77
2018-12-06T03:28:18.189Z,5.70
2018-12-06T03:30:53.638Z,5.30
2018-12-06T03:33:41.114Z,6.47
2018-12-06T03:36:26.822Z,6.80
2018-12-06T03:39:05.356Z,5.70
2018-12-06T03:41:52.724Z,6.33
2018-12-06T03:44:37.648Z,6.63
2018-12-06T03:47:25.530Z,6.50
2018-12-06T03:50:03.308Z,6.10
2018-12-06T03:52:42.144Z,6.00
2018-12-06T03:55:21.341Z,6.07
2018-12-06T03:58:04.944Z,6.63
2018-12-06T04:04:00.234Z,6.10
2018-12-06T04:09:44.861Z,6.53
2018-12-06T04:12:26.715Z,6.60
2018-12-06T04:15:06.391Z,6.83
2018-12-06T04:17:47.516Z,6.20
2018-12-06T04:20:16.866Z,7.40
2018-12-06T04:22:55.714Z,6.47
2018-12-06T04:25:44.930Z,7.20
2018-12-06T04:28:25.858Z,7.07
2018-12-06T04:31:13.040Z,7.60
2018-12-06T04:33:50.434Z,7.77
2018-12-06T04:39:45.115Z,8.10
2018-12-06T04:42:24.714Z,7.40
2018-12-06T04:45:05.940Z,7.40
2018-12-06T04:47:42.519Z,7.30
2018-12-06T04:50:22.571Z,7.23
2018-12-06T04:52:55.223Z,7.60
2018-12-06T04:55:39.388Z,7.17
2018-12-06T04:58:16.453Z,8.37
2018-12-06T05:01:01.405Z,7.30
2018-12-06T05:06:42.742Z,7.77
2018-12-06T05:09:22.252Z,7.73
2018-12-06T05:12:00.995Z,7.87
2018-12-06T05:14:46.273Z,7.90
2018-12-06T05:17:23.395Z,8.10
2018-12-06T05:20:07.345Z,7.70
2018-12-06T05:22:46.000Z,7.50
2018-12-06T05:25:31.408Z,7.73
2018-12-06T05:28:09.154Z,7.40
2018-12-06T05:30:54.112Z,7.27
2018-12-06T05:33:40.051Z,8.10
2018-12-06T05:36:22.714Z,7.47
2018-12-06T05:45:21.534Z,8.13
2018-12-06T05:48:03.411Z,8.43
2018-12-06T05:50:44.943Z,8.93
2018-12-06T05:53:30.011Z,8.07
2018-12-06T05:56:09.535Z,8.30
2018-12-06T05:58:57.503Z,7.97
2018-12-06T06:01:40.128Z,8.20
2018-12-06T06:04:13.041Z,8.40
2018-12-06T06:06:42.312Z,9.50
2018-12-06T06:12:17.372Z,8.37
2018-12-06T06:15:01.340Z,8.33
2018-12-06T06:17:33.938Z,8.20
2018-12-06T06:20:19.087Z,9.20
2018-12-06T06:23:01.030Z,9.27
2018-12-06T06:25:44.161Z,7.97
2018-12-06T06:31:35.648Z,10.40
2018-12-06T06:34:21.214Z,8.93
2018-12-06T06:37:06.650Z,9.57
2018-12-06T06:39:56.910Z,10.00
2018-12-06T06:42:33.003Z,9.03
2018-12-06T06:45:20.553Z,9.37
2018-12-06T06:48:06.453Z,11.00
2018-12-06T06:50:58.100Z,9.47
2018-12-06T06:53:35.522Z,9.33
2018-12-06T06:56:22.703Z,10.20
2018-12-06T06:59:10.218Z,10.70
2018-12-06T07:01:55.835Z,9.90
2018-12-06T07:10:47.367Z,10.53
2018-12-06T07:13:37.373Z,10.20
2018-12-06T07:16:30.483Z,9.90
2018-12-06T07:22:21.877Z,12.73
2018-12-06T07:25:09.070Z,9.87
2018-12-06T07:27:55.012Z,10.83
2018-12-06T07:30:36.776Z,12.07
2018-12-06T07:33:15.865Z,10.97
2018-12-06T07:35:53.224Z,11.80
2018-12-06T07:38:32.129Z,12.23
2018-12-06T07:41:15.810Z,13.43
2018-12-06T07:43:57.376Z,12.80
2018-12-06T07:46:39.301Z,11.97
2018-12-06T07:49:20.728Z,11.80
2018-12-06T07:51:57.175Z,12.80
2018-12-06T07:57:29.047Z,12.00
2018-12-06T08:03:01.455Z,11.57
2018-12-06T08:05:38.972Z,13.10
2018-12-06T08:08:20.743Z,13.80
2018-12-06T08:11:04.146Z,11.80
2018-12-06T08:13:45.711Z,12.67
2018-12-06T08:19:27.264Z,13.57
2018-12-06T08:22:12.898Z,14.57
2018-12-06T08:25:00.669Z,15.27
2018-12-06T08:27:48.153Z,16.30
2018-12-06T08:30:33.982Z,17.23
2018-12-06T08:33:15.252Z,16.30
2018-12-06T08:38:50.175Z,16.30
2018-12-06T08:44:27.024Z,14.83
2018-12-06T08:47:15.193Z,16.30
2018-12-06T08:50:00.939Z,15.67
2018-12-06T08:52:48.134Z,17.23
2018-12-06T08:55:31.927Z,17.83
2018-12-06T08:58:14.385Z,16.07
2018-12-06T09:03:50.667Z,16.80
2018-12-06T09:06:31.997Z,15.50
2018-12-06T09:09:09.493Z,14.33
2018-12-06T09:11:54.826Z,17.03
2018-12-06T09:14:36.369Z,13.97
2018-12-06T09:17:18.741Z,15.23
2018-12-06T09:20:05.994Z,15.23
2018-12-06T09:22:46.012Z,16.43
2018-12-06T09:25:25.555Z,16.27
2018-12-06T09:31:14.217Z,15.53
2018-12-06T09:36:59.634Z,17.03
2018-12-06T09:39:45.338Z,16.90
2018-12-06T09:42:28.772Z,15.60
2018-12-06T09:45:04.060Z,15.77
2018-12-06T09:50:59.573Z,17.33
2018-12-06T09:53:45.201Z,15.63
2018-12-06T09:56:33.039Z,16.47
2018-12-06T09:59:15.145Z,17.60
2018-12-06T10:02:00.846Z,18.07
2018-12-06T10:04:46.547Z,16.50
2018-12-06T10:13:30.988Z,16.43
2018-12-06T10:19:30.583Z,16.00
2018-12-06T10:22:18.083Z,17.03
2018-12-06T10:25:04.213Z,18.20
2018-12-06T10:27:46.193Z,18.10
2018-12-06T10:30:17.975Z,17.37
2018-12-06T10:32:57.451Z,17.80
2018-12-06T10:35:36.480Z,21.27
2018-12-06T10:38:17.493Z,19.37
2018-12-06T10:45:06.172Z,23.23
2018-12-06T10:47:47.685Z,18.40
2018-12-06T10:50:28.616Z,19.37
2018-12-06T10:53:09.427Z,18.23
2018-12-06T10:55:52.807Z,18.20
2018-12-06T10:58:40.484Z,17.93
2018-12-06T11:01:28.353Z,18.23
2018-12-06T11:10:17.319Z,19.80
2018-12-06T11:13:00.403Z,19.53
2018-12-06T11:15:52.366Z,19.67
2018-12-06T11:18:27.721Z,20.60
2018-12-06T11:21:16.125Z,17.17
2018-12-06T11:24:03.266Z,17.67
2018-12-06T11:26:54.173Z,18.53
2018-12-06T11:29:37.049Z,17.97
2018-12-06T11:32:21.308Z,18.93
2018-12-06T11:35:06.856Z,17.83
2018-12-06T11:40:50.059Z,17.27
2018-12-06T11:43:36.701Z,17.07
2018-12-06T11:46:20.796Z,17.53
2018-12-06T11:52:01.993Z,18.10
2018-12-06T11:54:44.119Z,16.93
2018-12-06T11:57:30.069Z,17.30
2018-12-06T12:03:19.751Z,17.77
2018-12-06T12:06:07.867Z,18.33
2018-12-06T12:08:57.930Z,18.13
2018-12-06T12:11:41.717Z,19.40
2018-12-06T12:14:14.367Z,19.23
2018-12-06T12:17:02.305Z,19.87
2018-12-06T12:19:50.013Z,20.07
2018-12-06T12:22:37.940Z,18.97
2018-12-06T12:25:17.367Z,19.07
2018-12-06T12:27:57.698Z,20.60
2018-12-06T12:30:33.245Z,20.13
2018-12-06T12:33:18.944Z,23.37
2018-12-06T12:35:57.733Z,21.67
2018-12-06T12:38:38.229Z,20.83
2018-12-06T12:44:35.724Z,21.27
2018-12-06T12:50:18.782Z,22.00
2018-12-06T12:53:06.538Z,19.20
2018-12-06T12:55:46.277Z,20.90
2018-12-06T12:58:25.970Z,20.87
2018-12-06T13:01:11.482Z,22.97
2018-12-06T13:03:56.056Z,22.80
2018-12-06T13:06:40.412Z,21.60
2018-12-06T13:09:26.306Z,20.93
2018-12-06T13:12:11.835Z,21.80
2018-12-06T13:15:01.114Z,23.27
2018-12-06T13:17:52.867Z,20.83
2018-12-06T13:20:30.431Z,21.23
2018-12-06T13:23:11.264Z,20.73
2018-12-06T13:25:56.798Z,20.67
2018-12-06T13:28:42.821Z,20.20
2018-12-06T13:31:24.822Z,20.97
2018-12-06T13:34:01.511Z,19.33
2018-12-06T13:36:40.521Z,20.07
2018-12-06T13:39:27.889Z,18.90
2018-12-06T13:42:15.459Z,20.17
2018-12-06T13:45:00.976Z,19.87
2018-12-06T13:47:46.293Z,20.50
2018-12-06T13:50:33.606Z,19.77
2018-12-06T14:05:57.206Z,22.93
2018-12-06T14:08:45.805Z,20.60
2018-12-06T14:11:27.637Z,20.50
2018-12-06T14:14:03.759Z,20.67
2018-12-06T14:16:51.479Z,21.50
2018-12-06T14:19:31.701Z,22.07
2018-12-06T14:25:01.780Z,22.67
2018-12-06T14:33:25.755Z,23.63
2018-12-06T14:36:11.353Z,23.40
2018-12-06T14:38:52.976Z,22.20
2018-12-06T14:41:31.853Z,26.43
2018-12-06T14:44:20.573Z,23.67
2018-12-06T14:47:05.828Z,24.63
2018-12-06T14:52:56.360Z,23.47
2018-12-06T14:55:31.202Z,24.67
2018-12-06T14:58:18.959Z,22.50
2018-12-06T15:01:10.383Z,25.17
2018-12-06T15:03:59.137Z,23.57
2018-12-06T15:06:47.291Z,24.10
2018-12-06T15:09:34.954Z,25.23
2018-12-06T15:12:20.559Z,24.77
2018-12-06T15:14:56.990Z,22.70
2018-12-06T15:17:44.649Z,24.20
2018-12-06T15:20:23.665Z,24.50
2018-12-06T15:23:11.073Z,22.63
2018-12-06T15:28:54.211Z,23.43
2018-12-06T15:34:32.852Z,21.50
2018-12-06T15:37:17.929Z,21.57
2018-12-06T15:40:02.087Z,23.13
2018-12-06T15:42:49.604Z,21.87
2018-12-06T15:45:27.054Z,22.50
2018-12-06T15:51:07.302Z,21.23
2018-12-06T15:53:44.559Z,22.67
2018-12-06T15:56:35.681Z,21.67
2018-12-06T15:59:17.575Z,19.87
2018-12-06T16:01:55.274Z,21.13
2018-12-06T16:04:47.060Z,20.23
2018-12-06T16:13:38.955Z,19.20
2018-12-06T16:16:18.521Z,19.70
2018-12-06T16:19:06.211Z,20.10
2018-12-06T16:21:52.279Z,21.17
2018-12-06T16:24:29.550Z,19.43
2018-12-06T16:27:08.574Z,20.30
2018-12-06T16:29:56.763Z,20.10
2018-12-06T16:32:42.338Z,20.40
2018-12-06T16:41:38.004Z,20.90
2018-12-06T16:44:24.081Z,21.87
2018-12-06T16:47:01.687Z,21.93
2018-12-06T16:49:46.818Z,18.80
2018-12-06T16:52:32.877Z,19.50
2018-12-06T16:58:21.638Z,18.00
2018-12-06T17:00:56.454Z,17.33
2018-12-06T17:03:27.703Z,19.30
2018-12-06T17:06:06.783Z,17.13
2018-12-06T17:08:56.453Z,15.60
2018-12-06T17:11:39.298Z,16.00
2018-12-06T17:14:25.246Z,17.77
2018-12-06T17:17:13.295Z,17.80
2018-12-06T17:19:50.485Z,17.13
2018-12-06T17:22:29.607Z,17.27
2018-12-06T17:25:05.923Z,17.23
2018-12-06T17:27:42.863Z,16.30
2018-12-06T17:30:20.086Z,15.93
2018-12-06T17:32:59.049Z,17.03
2018-12-06T17:35:50.832Z,16.27
2018-12-06T17:38:31.835Z,15.17
2018-12-06T17:41:05.547Z,15.83
2018-12-06T17:43:43.989Z,16.67
2018-12-06T17:46:29.667Z,16.37
2018-12-06T17:49:11.265Z,17.60
2018-12-06T17:57:59.267Z,16.90
2018-12-06T18:00:51.360Z,17.90
2018-12-06T18:03:24.202Z,18.00
2018-12-06T18:06:07.258Z,17.57
2018-12-06T18:08:53.681Z,17.27
2018-12-06T18:14:40.630Z,19.33
2018-12-06T18:17:27.685Z,19.60
2018-12-06T18:19:57.315Z,17.33
2018-12-06T18:22:38.992Z,19.30
2018-12-06T18:25:21.782Z,19.40
2018-12-06T18:28:03.720Z,18.63
2018-12-06T18:30:43.171Z,19.20
2018-12-06T18:33:20.380Z,19.53
2018-12-06T18:36:08.713Z,20.17
2018-12-06T18:38:46.136Z,19.50
2018-12-06T18:44:22.938Z,20.57
2018-12-06T18:47:05.385Z,19.87
2018-12-06T18:49:36.521Z,21.27
2018-12-06T18:52:11.803Z,22.90
2018-12-06T18:58:01.264Z,23.20
2018-12-06T19:00:48.324Z,22.07
2018-12-06T19:03:30.509Z,23.80
2018-12-06T19:06:08.288Z,23.10
2018-12-06T19:12:05.353Z,21.67
2018-12-06T19:14:45.114Z,22.40
2018-12-06T19:17:32.572Z,22.00
2018-12-06T19:20:17.670Z,21.80
2018-12-06T19:23:05.765Z,23.23
2018-12-06T19:25:49.444Z,22.00
2018-12-06T19:31:17.713Z,22.30
2018-12-06T19:34:05.233Z,20.30
2018-12-06T19:36:50.516Z,23.17
2018-12-06T19:39:36.604Z,20.57
2018-12-06T19:42:16.043Z,19.73
2018-12-06T19:44:57.437Z,19.73
2018-12-06T19:47:43.504Z,20.33
2018-12-06T19:50:25.328Z,20.17
2018-12-06T19:56:11.618Z,18.27
2018-12-06T19:58:50.840Z,18.80
2018-12-06T20:01:35.737Z,18.07
2018-12-06T20:04:24.897Z,20.30
2018-12-06T20:10:09.750Z,19.20
2018-12-06T20:12:49.241Z,19.17
2018-12-06T20:15:30.732Z,18.37
2018-12-06T20:18:16.601Z,19.40
2018-12-06T20:24:15.151Z,20.57
2018-12-06T20:26:52.325Z,21.20
2018-12-06T20:29:34.147Z,20.20
2018-12-06T20:38:30.903Z,21.23
2018-12-06T20:41:20.388Z,22.20
2018-12-06T20:44:07.773Z,21.20
2018-12-06T20:46:50.075Z,20.20
2018-12-06T20:49:38.773Z,20.40
2018-12-06T20:52:26.755Z,21.00
2018-12-06T20:54:59.716Z,22.90
2018-12-06T20:57:51.652Z,19.87
2018-12-06T21:00:34.519Z,18.77
2018-12-06T21:03:22.233Z,19.83
2018-12-06T21:06:07.433Z,19.87
2018-12-06T21:08:49.112Z,19.17
2018-12-06T21:17:27.482Z,19.30
2018-12-06T21:23:06.317Z,18.30
2018-12-06T21:25:47.888Z,19.60
2018-12-06T21:28:24.258Z,20.43
2018-12-06T21:31:06.149Z,21.57
2018-12-06T21:33:43.793Z,20.50
2018-12-06T21:36:19.713Z,18.00
2018-12-06T21:39:06.322Z,21.30
2018-12-06T21:44:39.577Z,20.30
2018-12-06T21:50:42.000Z,22.07
2018-12-06T21:53:28.030Z,21.70
2018-12-06T21:56:05.312Z,21.50
2018-12-06T21:58:53.451Z,22.90
2018-12-06T22:01:37.390Z,24.47
2018-12-06T22:04:13.539Z,21.63
2018-12-06T22:06:59.516Z,22.80
2018-12-06T22:09:51.117Z,22.00
2018-12-06T22:15:44.286Z,22.73
2018-12-06T22:18:25.965Z,23.13
2018-12-06T22:27:15.430Z,21.03
2018-12-06T22:29:54.765Z,22.03
2018-12-06T22:32:39.805Z,25.80
2018-12-06T22:35:23.385Z,23.57
2018-12-06T22:38:04.367Z,24.00
2018-12-06T22:40:54.694Z,25.80
2018-12-06T22:43:42.500Z,23.07
2018-12-06T22:49:43.314Z,23.73
2018-12-06T22:52:22.597Z,24.60
2018-12-06T22:55:07.790Z,24.37
2018-12-06T23:00:59.723Z,22.37
2018-12-06T23:03:36.322Z,22.97
2018-12-06T23:06:08.688Z,25.23
2018-12-06T23:11:58.871Z,23.87
2018-12-06T23:17:36.049Z,21.83
2018-12-06T23:23:30.976Z,25.80
2018-12-06T23:26:08.306Z,23.87
2018-12-06T23:28:43.040Z,23.93
2018-12-06T23:31:24.612Z,25.77
2018-12-06T23:40:14.461Z,25.17
2018-12-06T23:43:01.031Z,26.03
2018-12-06T23:45:52.171Z,26.57
2018-12-06T23:48:33.849Z,23.90
2018-12-06T23:51:16.013Z,24.50
2018-12-06T23:54:03.119Z,23.33
2018-12-06T23:56:53.159Z,23.87
